sensor_id;sensor_type;location;lat;lon;timestamp;P1;durP1;ratioP1;P2;durP2;ratioP2
56599;SDS011;51832;48.152;11.530;2023-05-29T00:02:35;14.48;;;7.97;;
56599;SDS011;51832;48.152;11.530;2023-05-29T00:07:36;12.85;;;7.45;;
56599;SDS011;51832;48.152;11.530;2023-05-29T00:12:36;15.10;;;7.40;;
56599;SDS011;51832;48.152;11.530;2023-05-29T00:17:37;10.30;;;6.53;;
56599;SDS011;51832;48.152;11.530;2023-05-29T00:22:39;13.13;;;7.38;;
56599;SDS011;51832;48.152;11.530;2023-05-29T00:27:40;10.32;;;6.63;;
56599;SDS011;51832;48.152;11.530;2023-05-29T00:32:41;13.48;;;7.68;;
56599;SDS011;51832;48.152;11.530;2023-05-29T00:37:41;12.13;;;7.57;;
56599;SDS011;51832;48.152;11.530;2023-05-29T00:42:42;12.77;;;8.03;;
56599;SDS011;51832;48.152;11.530;2023-05-29T00:47:42;11.57;;;7.97;;
56599;SDS011;51832;48.152;11.530;2023-05-29T00:52:43;14.60;;;8.45;;
56599;SDS011;51832;48.152;11.530;2023-05-29T00:57:45;12.77;;;8.87;;
56599;SDS011;51832;48.152;11.530;2023-05-29T01:02:46;13.32;;;9.07;;
56599;SDS011;51832;48.152;11.530;2023-05-29T01:07:47;14.93;;;9.07;;
56599;SDS011;51832;48.152;11.530;2023-05-29T01:12:56;13.68;;;8.15;;
56599;SDS011;51832;48.152;11.530;2023-05-29T01:18:07;13.75;;;8.73;;
56599;SDS011;51832;48.152;11.530;2023-05-29T01:28:46;13.07;;;8.90;;
56599;SDS011;51832;48.152;11.530;2023-05-29T01:33:52;11.40;;;8.23;;
56599;SDS011;51832;48.152;11.530;2023-05-29T01:38:56;13.85;;;8.82;;
56599;SDS011;51832;48.152;11.530;2023-05-29T01:43:58;13.40;;;8.60;;
56599;SDS011;51832;48.152;11.530;2023-05-29T01:48:59;13.60;;;9.05;;
56599;SDS011;51832;48.152;11.530;2023-05-29T01:54:00;12.65;;;8.13;;
56599;SDS011;51832;48.152;11.530;2023-05-29T01:59:02;13.40;;;8.50;;
56599;SDS011;51832;48.152;11.530;2023-05-29T02:04:03;15.20;;;8.65;;
56599;SDS011;51832;48.152;11.530;2023-05-29T02:09:03;14.35;;;8.43;;
56599;SDS011;51832;48.152;11.530;2023-05-29T02:14:04;12.37;;;8.00;;
56599;SDS011;51832;48.152;11.530;2023-05-29T02:19:04;10.88;;;7.82;;
56599;SDS011;51832;48.152;11.530;2023-05-29T02:24:05;14.10;;;8.20;;
56599;SDS011;51832;48.152;11.530;2023-05-29T02:29:05;12.43;;;8.30;;
56599;SDS011;51832;48.152;11.530;2023-05-29T02:34:05;12.95;;;7.55;;
56599;SDS011;51832;48.152;11.530;2023-05-29T02:39:06;12.65;;;8.27;;
56599;SDS011;51832;48.152;11.530;2023-05-29T02:44:06;11.50;;;7.73;;
56599;SDS011;51832;48.152;11.530;2023-05-29T02:49:07;12.05;;;7.55;;
56599;SDS011;51832;48.152;11.530;2023-05-29T02:54:07;13.40;;;8.07;;
56599;SDS011;51832;48.152;11.530;2023-05-29T02:59:07;12.93;;;8.30;;
56599;SDS011;51832;48.152;11.530;2023-05-29T03:04:08;13.75;;;8.35;;
56599;SDS011;51832;48.152;11.530;2023-05-29T03:09:09;12.80;;;8.40;;
56599;SDS011;51832;48.152;11.530;2023-05-29T03:14:10;13.37;;;8.10;;
56599;SDS011;51832;48.152;11.530;2023-05-29T03:19:10;13.07;;;8.13;;
56599;SDS011;51832;48.152;11.530;2023-05-29T03:24:11;14.50;;;8.77;;
56599;SDS011;51832;48.152;11.530;2023-05-29T03:29:13;13.10;;;7.07;;
56599;SDS011;51832;48.152;11.530;2023-05-29T03:34:13;11.68;;;7.38;;
56599;SDS011;51832;48.152;11.530;2023-05-29T03:39:14;14.18;;;8.15;;
56599;SDS011;51832;48.152;11.530;2023-05-29T03:44:14;11.02;;;6.95;;
56599;SDS011;51832;48.152;11.530;2023-05-29T03:49:15;12.65;;;7.47;;
56599;SDS011;51832;48.152;11.530;2023-05-29T03:54:15;13.68;;;7.53;;
56599;SDS011;51832;48.152;11.530;2023-05-29T03:59:16;11.85;;;6.85;;
56599;SDS011;51832;48.152;11.530;2023-05-29T04:04:17;11.20;;;6.65;;
56599;SDS011;51832;48.152;11.530;2023-05-29T04:09:18;10.60;;;6.47;;
56599;SDS011;51832;48.152;11.530;2023-05-29T04:14:18;11.65;;;6.45;;
56599;SDS011;51832;48.152;11.530;2023-05-29T04:19:19;10.80;;;6.40;;
56599;SDS011;51832;48.152;11.530;2023-05-29T04:24:20;11.50;;;6.80;;
56599;SDS011;51832;48.152;11.530;2023-05-29T04:29:21;9.38;;;5.93;;
56599;SDS011;51832;48.152;11.530;2023-05-29T04:34:21;9.55;;;6.07;;
56599;SDS011;51832;48.152;11.530;2023-05-29T04:39:22;10.80;;;5.68;;
56599;SDS011;51832;48.152;11.530;2023-05-29T04:44:23;10.97;;;6.10;;
56599;SDS011;51832;48.152;11.530;2023-05-29T04:54:27;11.48;;;5.97;;
56599;SDS011;51832;48.152;11.530;2023-05-29T04:59:27;8.15;;;6.05;;
56599;SDS011;51832;48.152;11.530;2023-05-29T05:04:28;9.85;;;5.38;;
56599;SDS011;51832;48.152;11.530;2023-05-29T05:09:28;8.50;;;5.90;;
56599;SDS011;51832;48.152;11.530;2023-05-29T05:14:29;9.85;;;6.15;;
56599;SDS011;51832;48.152;11.530;2023-05-29T05:19:29;9.70;;;5.60;;
56599;SDS011;51832;48.152;11.530;2023-05-29T05:24:30;9.85;;;6.55;;
56599;SDS011;51832;48.152;11.530;2023-05-29T05:29:32;9.82;;;5.78;;
56599;SDS011;51832;48.152;11.530;2023-05-29T05:34:32;8.63;;;5.28;;
56599;SDS011;51832;48.152;11.530;2023-05-29T05:39:33;9.67;;;5.47;;
56599;SDS011;51832;48.152;11.530;2023-05-29T05:44:33;9.30;;;5.18;;
56599;SDS011;51832;48.152;11.530;2023-05-29T05:49:33;8.77;;;5.13;;
56599;SDS011;51832;48.152;11.530;2023-05-29T05:54:34;9.13;;;5.38;;
56599;SDS011;51832;48.152;11.530;2023-05-29T05:59:34;9.77;;;5.53;;
56599;SDS011;51832;48.152;11.530;2023-05-29T06:04:35;9.32;;;5.60;;
56599;SDS011;51832;48.152;11.530;2023-05-29T06:09:36;11.07;;;6.03;;
56599;SDS011;51832;48.152;11.530;2023-05-29T06:14:37;9.98;;;5.55;;
56599;SDS011;51832;48.152;11.530;2023-05-29T06:19:37;9.15;;;5.43;;
56599;SDS011;51832;48.152;11.530;2023-05-29T06:24:38;9.40;;;5.77;;
56599;SDS011;51832;48.152;11.530;2023-05-29T06:29:38;10.03;;;5.30;;
56599;SDS011;51832;48.152;11.530;2023-05-29T06:34:38;11.85;;;6.18;;
56599;SDS011;51832;48.152;11.530;2023-05-29T06:39:39;9.02;;;5.20;;
56599;SDS011;51832;48.152;11.530;2023-05-29T06:44:41;7.72;;;5.40;;
56599;SDS011;51832;48.152;11.530;2023-05-29T06:49:42;8.87;;;5.20;;
56599;SDS011;51832;48.152;11.530;2023-05-29T06:54:42;7.57;;;4.70;;
56599;SDS011;51832;48.152;11.530;2023-05-29T06:59:43;7.03;;;4.40;;
56599;SDS011;51832;48.152;11.530;2023-05-29T07:04:43;7.97;;;5.18;;
56599;SDS011;51832;48.152;11.530;2023-05-29T07:09:43;7.72;;;5.10;;
56599;SDS011;51832;48.152;11.530;2023-05-29T07:14:44;8.23;;;4.72;;
56599;SDS011;51832;48.152;11.530;2023-05-29T07:19:46;8.43;;;5.07;;
56599;SDS011;51832;48.152;11.530;2023-05-29T07:24:49;9.13;;;5.25;;
56599;SDS011;51832;48.152;11.530;2023-05-29T07:29:49;9.18;;;4.85;;
56599;SDS011;51832;48.152;11.530;2023-05-29T07:34:50;8.68;;;5.32;;
56599;SDS011;51832;48.152;11.530;2023-05-29T07:39:51;11.43;;;4.85;;
56599;SDS011;51832;48.152;11.530;2023-05-29T07:44:51;6.32;;;4.97;;
56599;SDS011;51832;48.152;11.530;2023-05-29T07:49:52;8.85;;;5.68;;
56599;SDS011;51832;48.152;11.530;2023-05-29T07:54:52;8.88;;;5.55;;
56599;SDS011;51832;48.152;11.530;2023-05-29T07:59:53;8.05;;;5.30;;
56599;SDS011;51832;48.152;11.530;2023-05-29T08:04:54;10.02;;;5.93;;
56599;SDS011;51832;48.152;11.530;2023-05-29T08:09:54;10.15;;;6.32;;
56599;SDS011;51832;48.152;11.530;2023-05-29T08:14:55;9.85;;;6.00;;
56599;SDS011;51832;48.152;11.530;2023-05-29T08:19:56;8.63;;;5.53;;
56599;SDS011;51832;48.152;11.530;2023-05-29T08:24:56;9.25;;;4.97;;
56599;SDS011;51832;48.152;11.530;2023-05-29T08:29:57;9.77;;;6.07;;
56599;SDS011;51832;48.152;11.530;2023-05-29T08:34:57;9.68;;;5.32;;
56599;SDS011;51832;48.152;11.530;2023-05-29T08:39:58;10.17;;;5.60;;
56599;SDS011;51832;48.152;11.530;2023-05-29T08:44:58;7.93;;;5.23;;
56599;SDS011;51832;48.152;11.530;2023-05-29T08:50:03;7.78;;;4.93;;
56599;SDS011;51832;48.152;11.530;2023-05-29T08:55:05;9.50;;;5.30;;
56599;SDS011;51832;48.152;11.530;2023-05-29T09:00:06;7.93;;;5.10;;
56599;SDS011;51832;48.152;11.530;2023-05-29T09:05:12;9.98;;;5.10;;
56599;SDS011;51832;48.152;11.530;2023-05-29T09:10:13;7.32;;;4.90;;
56599;SDS011;51832;48.152;11.530;2023-05-29T09:15:21;8.27;;;5.13;;
56599;SDS011;51832;48.152;11.530;2023-05-29T09:20:24;7.60;;;4.55;;
56599;SDS011;51832;48.152;11.530;2023-05-29T09:25:26;5.83;;;4.43;;
56599;SDS011;51832;48.152;11.530;2023-05-29T09:35:36;6.95;;;4.40;;
56599;SDS011;51832;48.152;11.530;2023-05-29T09:45:40;7.32;;;4.22;;
56599;SDS011;51832;48.152;11.530;2023-05-29T09:50:42;10.18;;;4.78;;
56599;SDS011;51832;48.152;11.530;2023-05-29T09:55:49;7.30;;;4.40;;
56599;SDS011;51832;48.152;11.530;2023-05-29T10:00:51;6.30;;;4.45;;
56599;SDS011;51832;48.152;11.530;2023-05-29T10:05:53;6.22;;;3.95;;
56599;SDS011;51832;48.152;11.530;2023-05-29T10:11:00;6.13;;;4.07;;
56599;SDS011;51832;48.152;11.530;2023-05-29T10:16:03;7.65;;;4.53;;
56599;SDS011;51832;48.152;11.530;2023-05-29T10:21:07;6.57;;;3.80;;
56599;SDS011;51832;48.152;11.530;2023-05-29T10:26:15;8.18;;;4.40;;
56599;SDS011;51832;48.152;11.530;2023-05-29T10:31:26;6.68;;;4.50;;
56599;SDS011;51832;48.152;11.530;2023-05-29T10:36:32;6.35;;;4.28;;
56599;SDS011;51832;48.152;11.530;2023-05-29T10:41:37;7.55;;;4.32;;
56599;SDS011;51832;48.152;11.530;2023-05-29T10:51:48;5.85;;;3.80;;
56599;SDS011;51832;48.152;11.530;2023-05-29T10:56:56;5.60;;;4.18;;
56599;SDS011;51832;48.152;11.530;2023-05-29T11:01:57;5.28;;;3.75;;
56599;SDS011;51832;48.152;11.530;2023-05-29T11:06:58;5.55;;;3.67;;
56599;SDS011;51832;48.152;11.530;2023-05-29T11:23:21;7.88;;;4.25;;
56599;SDS011;51832;48.152;11.530;2023-05-29T11:28:04;6.38;;;3.83;;
56599;SDS011;51832;48.152;11.530;2023-05-29T11:33:08;5.90;;;4.00;;
56599;SDS011;51832;48.152;11.530;2023-05-29T11:38:16;5.97;;;4.25;;
56599;SDS011;51832;48.152;11.530;2023-05-29T11:43:16;5.53;;;3.80;;
56599;SDS011;51832;48.152;11.530;2023-05-29T11:48:17;5.53;;;4.00;;
56599;SDS011;51832;48.152;11.530;2023-05-29T11:53:17;5.70;;;3.90;;
56599;SDS011;51832;48.152;11.530;2023-05-29T11:58:18;5.90;;;4.00;;
56599;SDS011;51832;48.152;11.530;2023-05-29T12:03:20;5.57;;;3.80;;
56599;SDS011;51832;48.152;11.530;2023-05-29T12:08:24;6.53;;;3.70;;
56599;SDS011;51832;48.152;11.530;2023-05-29T12:13:25;6.15;;;4.03;;
56599;SDS011;51832;48.152;11.530;2023-05-29T12:18:25;5.30;;;3.67;;
56599;SDS011;51832;48.152;11.530;2023-05-29T12:23:27;5.22;;;3.88;;
56599;SDS011;51832;48.152;11.530;2023-05-29T12:28:28;6.67;;;3.87;;
56599;SDS011;51832;48.152;11.530;2023-05-29T12:33:32;6.83;;;4.03;;
56599;SDS011;51832;48.152;11.530;2023-05-29T12:38:33;5.65;;;3.67;;
56599;SDS011;51832;48.152;11.530;2023-05-29T12:43:45;5.43;;;3.65;;
56599;SDS011;51832;48.152;11.530;2023-05-29T12:48:46;5.83;;;3.67;;
56599;SDS011;51832;48.152;11.530;2023-05-29T12:53:46;6.00;;;4.17;;
56599;SDS011;51832;48.152;11.530;2023-05-29T12:58:47;5.33;;;3.70;;
56599;SDS011;51832;48.152;11.530;2023-05-29T13:03:47;6.43;;;3.63;;
56599;SDS011;51832;48.152;11.530;2023-05-29T13:08:47;5.67;;;3.90;;
56599;SDS011;51832;48.152;11.530;2023-05-29T13:13:48;6.78;;;4.00;;
56599;SDS011;51832;48.152;11.530;2023-05-29T13:18:48;6.45;;;4.15;;
56599;SDS011;51832;48.152;11.530;2023-05-29T13:23:48;5.77;;;3.93;;
56599;SDS011;51832;48.152;11.530;2023-05-29T13:28:49;6.55;;;4.20;;
56599;SDS011;51832;48.152;11.530;2023-05-29T13:33:50;5.13;;;3.90;;
56599;SDS011;51832;48.152;11.530;2023-05-29T13:38:51;4.97;;;3.70;;
56599;SDS011;51832;48.152;11.530;2023-05-29T13:43:51;5.37;;;4.00;;
56599;SDS011;51832;48.152;11.530;2023-05-29T13:48:51;7.03;;;3.83;;
56599;SDS011;51832;48.152;11.530;2023-05-29T13:53:52;6.85;;;3.88;;
56599;SDS011;51832;48.152;11.530;2023-05-29T13:58:52;5.60;;;4.30;;
56599;SDS011;51832;48.152;11.530;2023-05-29T14:03:54;7.73;;;4.03;;
56599;SDS011;51832;48.152;11.530;2023-05-29T14:08:54;5.77;;;4.30;;
56599;SDS011;51832;48.152;11.530;2023-05-29T14:13:56;6.32;;;3.90;;
56599;SDS011;51832;48.152;11.530;2023-05-29T14:18:56;4.67;;;4.13;;
56599;SDS011;51832;48.152;11.530;2023-05-29T14:23:57;5.60;;;3.80;;
56599;SDS011;51832;48.152;11.530;2023-05-29T14:28:57;4.85;;;3.67;;
56599;SDS011;51832;48.152;11.530;2023-05-29T14:33:57;5.43;;;4.00;;
56599;SDS011;51832;48.152;11.530;2023-05-29T14:38:58;5.05;;;3.70;;
56599;SDS011;51832;48.152;11.530;2023-05-29T14:43:58;4.90;;;3.58;;
56599;SDS011;51832;48.152;11.530;2023-05-29T14:48:59;8.27;;;4.93;;
56599;SDS011;51832;48.152;11.530;2023-05-29T14:54:00;6.17;;;4.23;;
56599;SDS011;51832;48.152;11.530;2023-05-29T14:59:01;5.13;;;4.00;;
56599;SDS011;51832;48.152;11.530;2023-05-29T15:04:01;7.30;;;4.45;;
56599;SDS011;51832;48.152;11.530;2023-05-29T15:09:01;5.13;;;3.87;;
56599;SDS011;51832;48.152;11.530;2023-05-29T15:14:02;5.18;;;4.10;;
56599;SDS011;51832;48.152;11.530;2023-05-29T15:19:03;6.70;;;4.30;;
56599;SDS011;51832;48.152;11.530;2023-05-29T15:24:05;6.07;;;3.75;;
56599;SDS011;51832;48.152;11.530;2023-05-29T15:29:06;6.03;;;3.60;;
56599;SDS011;51832;48.152;11.530;2023-05-29T15:34:06;7.40;;;4.00;;
56599;SDS011;51832;48.152;11.530;2023-05-29T15:39:07;4.22;;;3.60;;
56599;SDS011;51832;48.152;11.530;2023-05-29T15:44:07;7.72;;;4.35;;
56599;SDS011;51832;48.152;11.530;2023-05-29T15:49:08;4.53;;;3.67;;
56599;SDS011;51832;48.152;11.530;2023-05-29T15:54:09;5.57;;;3.78;;
56599;SDS011;51832;48.152;11.530;2023-05-29T15:59:10;5.63;;;3.70;;
56599;SDS011;51832;48.152;11.530;2023-05-29T16:04:10;4.93;;;3.87;;
56599;SDS011;51832;48.152;11.530;2023-05-29T16:14:14;5.22;;;3.72;;
56599;SDS011;51832;48.152;11.530;2023-05-29T16:19:14;5.87;;;3.57;;
56599;SDS011;51832;48.152;11.530;2023-05-29T16:24:15;6.05;;;3.60;;
56599;SDS011;51832;48.152;11.530;2023-05-29T16:29:15;7.33;;;4.20;;
56599;SDS011;51832;48.152;11.530;2023-05-29T16:34:16;4.10;;;3.60;;
56599;SDS011;51832;48.152;11.530;2023-05-29T16:39:16;5.63;;;3.55;;
56599;SDS011;51832;48.152;11.530;2023-05-29T16:44:21;6.82;;;4.72;;
56599;SDS011;51832;48.152;11.530;2023-05-29T16:49:22;5.57;;;3.57;;
56599;SDS011;51832;48.152;11.530;2023-05-29T16:54:22;5.63;;;3.30;;
56599;SDS011;51832;48.152;11.530;2023-05-29T16:59:23;4.33;;;3.93;;
56599;SDS011;51832;48.152;11.530;2023-05-29T17:04:23;4.70;;;4.17;;
56599;SDS011;51832;48.152;11.530;2023-05-29T17:14:26;6.07;;;3.90;;
56599;SDS011;51832;48.152;11.530;2023-05-29T17:19:27;6.53;;;4.00;;
56599;SDS011;51832;48.152;11.530;2023-05-29T17:24:27;5.00;;;4.20;;
56599;SDS011;51832;48.152;11.530;2023-05-29T17:29:28;4.57;;;3.90;;
56599;SDS011;51832;48.152;11.530;2023-05-29T17:34:28;7.47;;;4.00;;
56599;SDS011;51832;48.152;11.530;2023-05-29T17:39:29;5.20;;;3.87;;
56599;SDS011;51832;48.152;11.530;2023-05-29T17:44:29;4.40;;;4.00;;
56599;SDS011;51832;48.152;11.530;2023-05-29T17:49:30;5.10;;;3.83;;
56599;SDS011;51832;48.152;11.530;2023-05-29T17:54:30;6.60;;;4.37;;
56599;SDS011;51832;48.152;11.530;2023-05-29T17:59:30;4.67;;;4.00;;
56599;SDS011;51832;48.152;11.530;2023-05-29T18:04:35;4.10;;;3.80;;
56599;SDS011;51832;48.152;11.530;2023-05-29T18:09:35;5.97;;;4.00;;
56599;SDS011;51832;48.152;11.530;2023-05-29T18:14:36;7.63;;;4.13;;
56599;SDS011;51832;48.152;11.530;2023-05-29T18:19:36;7.07;;;4.17;;
56599;SDS011;51832;48.152;11.530;2023-05-29T18:24:37;7.30;;;4.97;;
56599;SDS011;51832;48.152;11.530;2023-05-29T18:34:38;6.07;;;4.40;;
56599;SDS011;51832;48.152;11.530;2023-05-29T18:39:38;5.60;;;4.10;;
56599;SDS011;51832;48.152;11.530;2023-05-29T18:44:38;4.90;;;3.83;;
56599;SDS011;51832;48.152;11.530;2023-05-29T18:49:39;6.33;;;3.93;;
56599;SDS011;51832;48.152;11.530;2023-05-29T18:54:40;5.20;;;4.28;;
56599;SDS011;51832;48.152;11.530;2023-05-29T18:59:40;6.80;;;4.37;;
56599;SDS011;51832;48.152;11.530;2023-05-29T19:04:41;6.57;;;4.47;;
56599;SDS011;51832;48.152;11.530;2023-05-29T19:09:41;6.07;;;4.18;;
56599;SDS011;51832;48.152;11.530;2023-05-29T19:14:42;6.43;;;4.35;;
56599;SDS011;51832;48.152;11.530;2023-05-29T19:19:43;7.40;;;4.55;;
56599;SDS011;51832;48.152;11.530;2023-05-29T19:24:43;6.47;;;4.57;;
56599;SDS011;51832;48.152;11.530;2023-05-29T19:29:43;4.90;;;3.93;;
56599;SDS011;51832;48.152;11.530;2023-05-29T19:34:45;7.40;;;4.28;;
56599;SDS011;51832;48.152;11.530;2023-05-29T19:39:46;6.47;;;4.65;;
56599;SDS011;51832;48.152;11.530;2023-05-29T19:44:52;7.72;;;4.60;;
56599;SDS011;51832;48.152;11.530;2023-05-29T19:49:53;7.78;;;5.15;;
56599;SDS011;51832;48.152;11.530;2023-05-29T19:54:53;7.05;;;5.10;;
56599;SDS011;51832;48.152;11.530;2023-05-29T19:59:54;5.30;;;4.38;;
56599;SDS011;51832;48.152;11.530;2023-05-29T20:04:59;5.45;;;4.60;;
56599;SDS011;51832;48.152;11.530;2023-05-29T20:10:00;5.07;;;3.83;;
56599;SDS011;51832;48.152;11.530;2023-05-29T20:15:01;5.83;;;4.30;;
56599;SDS011;51832;48.152;11.530;2023-05-29T20:20:01;5.37;;;3.83;;
56599;SDS011;51832;48.152;11.530;2023-05-29T20:25:03;8.75;;;4.30;;
56599;SDS011;51832;48.152;11.530;2023-05-29T20:30:04;7.00;;;4.00;;
56599;SDS011;51832;48.152;11.530;2023-05-29T20:35:06;6.82;;;3.75;;
56599;SDS011;51832;48.152;11.530;2023-05-29T20:40:07;6.70;;;3.97;;
56599;SDS011;51832;48.152;11.530;2023-05-29T20:45:08;7.05;;;4.15;;
56599;SDS011;51832;48.152;11.530;2023-05-29T20:50:10;7.50;;;4.60;;
56599;SDS011;51832;48.152;11.530;2023-05-29T20:55:14;6.68;;;4.55;;
56599;SDS011;51832;48.152;11.530;2023-05-29T21:00:14;8.47;;;4.87;;
56599;SDS011;51832;48.152;11.530;2023-05-29T21:05:15;5.55;;;4.32;;
56599;SDS011;51832;48.152;11.530;2023-05-29T21:10:15;5.75;;;4.10;;
56599;SDS011;51832;48.152;11.530;2023-05-29T21:15:16;4.22;;;3.83;;
56599;SDS011;51832;48.152;11.530;2023-05-29T21:20:16;5.03;;;3.88;;
56599;SDS011;51832;48.152;11.530;2023-05-29T21:25:17;7.88;;;4.00;;
56599;SDS011;51832;48.152;11.530;2023-05-29T21:30:18;5.63;;;3.92;;
56599;SDS011;51832;48.152;11.530;2023-05-29T21:35:18;5.60;;;3.90;;
56599;SDS011;51832;48.152;11.530;2023-05-29T21:40:18;4.28;;;3.58;;
56599;SDS011;51832;48.152;11.530;2023-05-29T21:45:21;4.60;;;3.50;;
56599;SDS011;51832;48.152;11.530;2023-05-29T21:50:22;4.65;;;3.38;;
56599;SDS011;51832;48.152;11.530;2023-05-29T21:55:22;4.63;;;3.30;;
56599;SDS011;51832;48.152;11.530;2023-05-29T22:00:23;5.57;;;3.78;;
56599;SDS011;51832;48.152;11.530;2023-05-29T22:05:25;4.88;;;3.10;;
56599;SDS011;51832;48.152;11.530;2023-05-29T22:10:26;5.43;;;3.35;;
56599;SDS011;51832;48.152;11.530;2023-05-29T22:15:30;4.57;;;3.85;;
56599;SDS011;51832;48.152;11.530;2023-05-29T22:20:30;5.70;;;3.25;;
56599;SDS011;51832;48.152;11.530;2023-05-29T22:25:31;3.95;;;3.05;;
56599;SDS011;51832;48.152;11.530;2023-05-29T22:30:31;4.87;;;3.43;;
56599;SDS011;51832;48.152;11.530;2023-05-29T22:35:32;8.00;;;3.57;;
56599;SDS011;51832;48.152;11.530;2023-05-29T22:40:32;3.65;;;3.13;;
56599;SDS011;51832;48.152;11.530;2023-05-29T22:45:33;5.28;;;3.28;;
56599;SDS011;51832;48.152;11.530;2023-05-29T22:50:34;5.10;;;3.60;;
56599;SDS011;51832;48.152;11.530;2023-05-29T22:55:34;4.32;;;3.20;;
56599;SDS011;51832;48.152;11.530;2023-05-29T23:00:35;6.88;;;3.40;;
56599;SDS011;51832;48.152;11.530;2023-05-29T23:05:36;5.05;;;3.67;;
56599;SDS011;51832;48.152;11.530;2023-05-29T23:10:37;4.57;;;3.05;;
56599;SDS011;51832;48.152;11.530;2023-05-29T23:15:37;7.57;;;3.60;;
56599;SDS011;51832;48.152;11.530;2023-05-29T23:20:38;4.22;;;3.28;;
56599;SDS011;51832;48.152;11.530;2023-05-29T23:25:38;4.30;;;2.80;;
56599;SDS011;51832;48.152;11.530;2023-05-29T23:30:40;10.85;;;3.22;;
56599;SDS011;51832;48.152;11.530;2023-05-29T23:35:40;4.32;;;3.17;;
56599;SDS011;51832;48.152;11.530;2023-05-29T23:40:41;5.35;;;3.15;;
56599;SDS011;51832;48.152;11.530;2023-05-29T23:45:41;5.20;;;3.07;;
56599;SDS011;51832;48.152;11.530;2023-05-29T23:50:42;4.13;;;3.07;;
56599;SDS011;51832;48.152;11.530;2023-05-29T23:55:43;3.92;;;2.85;;
